Terminal Aerodrome Forecast
Issued by NWS Bismarck, ND

Home | Current Version | Previous Version | Text Only | Print | Product List | Glossary Off
Versions: 1 2 3 4 5 6 7 8 9 10 11 12 13 14 15 16 17 18 19 20 21 22 23 24 25

653
FTUS43 KBIS 201127
TAFBIS
TAF
KBIS 201127Z 2012/2112 VRB03KT 1/4SM FZFG OVC002
      TEMPO 2014/2017 3/4SM BR OVC004
     FM201700 00000KT 1SM BR SCT002 OVC005
     FM202100 12004KT 4SM BR OVC007
     FM210000 10004KT 2SM BR OVC003=

USA.gov is the U.S. government's official web portal to all federal, state and local government web resources and services.